sensor_id;sensor_type;location;lat;lon;timestamp;temperature;humidity
19622;DHT22;9958;33.196;-97.114;2023-12-14T00:01:17;14.50;53.00
19622;DHT22;9958;33.196;-97.114;2023-12-14T00:03:46;14.50;52.50
19622;DHT22;9958;33.196;-97.114;2023-12-14T00:06:16;14.40;51.50
19622;DHT22;9958;33.196;-97.114;2023-12-14T00:08:44;14.40;51.30
19622;DHT22;9958;33.196;-97.114;2023-12-14T00:11:12;14.40;51.60
19622;DHT22;9958;33.196;-97.114;2023-12-14T00:13:41;14.30;51.70
19622;DHT22;9958;33.196;-97.114;2023-12-14T00:16:09;14.30;52.10
19622;DHT22;9958;33.196;-97.114;2023-12-14T00:18:37;14.30;52.30
19622;DHT22;9958;33.196;-97.114;2023-12-14T00:21:06;14.30;51.70
19622;DHT22;9958;33.196;-97.114;2023-12-14T00:23:36;14.20;51.60
19622;DHT22;9958;33.196;-97.114;2023-12-14T00:26:04;14.20;51.90
19622;DHT22;9958;33.196;-97.114;2023-12-14T00:28:33;14.20;52.50
19622;DHT22;9958;33.196;-97.114;2023-12-14T00:31:01;14.20;52.40
19622;DHT22;9958;33.196;-97.114;2023-12-14T00:33:29;14.20;52.70
19622;DHT22;9958;33.196;-97.114;2023-12-14T00:35:58;14.20;53.10
19622;DHT22;9958;33.196;-97.114;2023-12-14T00:38:27;14.20;53.00
19622;DHT22;9958;33.196;-97.114;2023-12-14T00:40:56;14.10;52.60
19622;DHT22;9958;33.196;-97.114;2023-12-14T00:43:25;14.00;52.90
19622;DHT22;9958;33.196;-97.114;2023-12-14T00:45:53;14.00;53.00
19622;DHT22;9958;33.196;-97.114;2023-12-14T00:48:21;14.00;53.30
19622;DHT22;9958;33.196;-97.114;2023-12-14T00:50:50;13.90;53.50
19622;DHT22;9958;33.196;-97.114;2023-12-14T00:53:18;13.90;53.70
19622;DHT22;9958;33.196;-97.114;2023-12-14T00:55:46;13.80;54.10
19622;DHT22;9958;33.196;-97.114;2023-12-14T00:58:16;13.70;54.50
19622;DHT22;9958;33.196;-97.114;2023-12-14T01:00:44;13.60;55.00
19622;DHT22;9958;33.196;-97.114;2023-12-14T01:03:13;13.50;55.40
19622;DHT22;9958;33.196;-97.114;2023-12-14T01:05:41;13.50;56.00
19622;DHT22;9958;33.196;-97.114;2023-12-14T01:08:10;13.30;55.90
19622;DHT22;9958;33.196;-97.114;2023-12-14T01:10:38;13.30;56.20
19622;DHT22;9958;33.196;-97.114;2023-12-14T01:13:06;13.30;56.40
19622;DHT22;9958;33.196;-97.114;2023-12-14T01:15:36;13.20;56.70
19622;DHT22;9958;33.196;-97.114;2023-12-14T01:18:05;13.10;56.90
19622;DHT22;9958;33.196;-97.114;2023-12-14T01:20:33;13.00;57.20
19622;DHT22;9958;33.196;-97.114;2023-12-14T01:23:01;12.90;57.40
19622;DHT22;9958;33.196;-97.114;2023-12-14T01:25:30;12.90;57.60
19622;DHT22;9958;33.196;-97.114;2023-12-14T01:27:58;12.90;57.90
19622;DHT22;9958;33.196;-97.114;2023-12-14T01:30:26;12.90;58.20
19622;DHT22;9958;33.196;-97.114;2023-12-14T01:32:56;12.80;58.20
19622;DHT22;9958;33.196;-97.114;2023-12-14T01:35:24;12.70;58.60
19622;DHT22;9958;33.196;-97.114;2023-12-14T01:37:53;12.70;58.80
19622;DHT22;9958;33.196;-97.114;2023-12-14T01:40:21;12.70;59.40
19622;DHT22;9958;33.196;-97.114;2023-12-14T01:42:49;12.60;59.60
19622;DHT22;9958;33.196;-97.114;2023-12-14T01:45:18;12.60;60.00
19622;DHT22;9958;33.196;-97.114;2023-12-14T01:47:46;12.60;60.30
19622;DHT22;9958;33.196;-97.114;2023-12-14T01:50:16;12.50;60.50
19622;DHT22;9958;33.196;-97.114;2023-12-14T01:52:44;12.50;60.80
19622;DHT22;9958;33.196;-97.114;2023-12-14T01:55:13;12.50;60.90
19622;DHT22;9958;33.196;-97.114;2023-12-14T01:57:41;12.50;61.30
19622;DHT22;9958;33.196;-97.114;2023-12-14T02:00:17;12.50;61.50
19622;DHT22;9958;33.196;-97.114;2023-12-14T02:02:47;12.50;61.60
19622;DHT22;9958;33.196;-97.114;2023-12-14T02:05:17;12.50;61.80
19622;DHT22;9958;33.196;-97.114;2023-12-14T02:07:46;12.50;61.80
19622;DHT22;9958;33.196;-97.114;2023-12-14T02:10:16;12.50;62.00
19622;DHT22;9958;33.196;-97.114;2023-12-14T02:12:44;12.50;62.00
19622;DHT22;9958;33.196;-97.114;2023-12-14T02:15:12;12.50;62.00
19622;DHT22;9958;33.196;-97.114;2023-12-14T02:17:41;12.50;62.20
19622;DHT22;9958;33.196;-97.114;2023-12-14T02:20:10;12.50;62.30
19622;DHT22;9958;33.196;-97.114;2023-12-14T02:22:50;12.50;62.30
19622;DHT22;9958;33.196;-97.114;2023-12-14T02:25:19;12.40;62.60
19622;DHT22;9958;33.196;-97.114;2023-12-14T02:27:48;12.40;62.90
19622;DHT22;9958;33.196;-97.114;2023-12-14T02:30:18;12.40;62.90
19622;DHT22;9958;33.196;-97.114;2023-12-14T02:32:46;12.40;63.30
19622;DHT22;9958;33.196;-97.114;2023-12-14T02:35:15;12.40;63.20
19622;DHT22;9958;33.196;-97.114;2023-12-14T02:37:44;12.40;63.60
19622;DHT22;9958;33.196;-97.114;2023-12-14T02:40:14;12.30;63.40
19622;DHT22;9958;33.196;-97.114;2023-12-14T02:42:42;12.30;63.70
19622;DHT22;9958;33.196;-97.114;2023-12-14T02:45:11;12.30;63.70
19622;DHT22;9958;33.196;-97.114;2023-12-14T02:47:39;12.30;64.00
19622;DHT22;9958;33.196;-97.114;2023-12-14T02:50:08;12.30;64.20
19622;DHT22;9958;33.196;-97.114;2023-12-14T02:52:36;12.30;64.30
19622;DHT22;9958;33.196;-97.114;2023-12-14T02:55:05;12.20;64.20
19622;DHT22;9958;33.196;-97.114;2023-12-14T02:57:36;12.20;64.70
19622;DHT22;9958;33.196;-97.114;2023-12-14T03:00:05;12.20;64.90
19622;DHT22;9958;33.196;-97.114;2023-12-14T03:02:34;12.20;64.90
19622;DHT22;9958;33.196;-97.114;2023-12-14T03:05:02;12.20;65.10
19622;DHT22;9958;33.196;-97.114;2023-12-14T03:07:30;12.20;65.60
19622;DHT22;9958;33.196;-97.114;2023-12-14T03:09:59;12.20;65.80
19622;DHT22;9958;33.196;-97.114;2023-12-14T03:12:27;12.20;65.90
19622;DHT22;9958;33.196;-97.114;2023-12-14T03:14:57;12.20;66.00
19622;DHT22;9958;33.196;-97.114;2023-12-14T03:17:25;12.20;66.30
19622;DHT22;9958;33.196;-97.114;2023-12-14T03:19:54;12.20;66.40
19622;DHT22;9958;33.196;-97.114;2023-12-14T03:22:22;12.20;66.60
19622;DHT22;9958;33.196;-97.114;2023-12-14T03:24:50;12.10;66.90
19622;DHT22;9958;33.196;-97.114;2023-12-14T03:27:19;12.10;66.90
19622;DHT22;9958;33.196;-97.114;2023-12-14T03:29:49;12.00;67.20
19622;DHT22;9958;33.196;-97.114;2023-12-14T03:32:19;12.00;67.30
19622;DHT22;9958;33.196;-97.114;2023-12-14T03:34:47;12.00;67.50
19622;DHT22;9958;33.196;-97.114;2023-12-14T03:37:15;12.00;67.70
19622;DHT22;9958;33.196;-97.114;2023-12-14T03:39:43;12.00;67.70
19622;DHT22;9958;33.196;-97.114;2023-12-14T03:42:12;12.00;67.70
19622;DHT22;9958;33.196;-97.114;2023-12-14T03:44:40;11.90;67.80
19622;DHT22;9958;33.196;-97.114;2023-12-14T03:47:08;12.00;68.00
19622;DHT22;9958;33.196;-97.114;2023-12-14T03:49:39;11.90;67.90
19622;DHT22;9958;33.196;-97.114;2023-12-14T03:52:07;11.90;68.10
19622;DHT22;9958;33.196;-97.114;2023-12-14T03:54:36;11.90;68.40
19622;DHT22;9958;33.196;-97.114;2023-12-14T03:57:04;11.90;68.50
19622;DHT22;9958;33.196;-97.114;2023-12-14T03:59:33;11.90;68.80
19622;DHT22;9958;33.196;-97.114;2023-12-14T04:02:01;11.90;68.70
19622;DHT22;9958;33.196;-97.114;2023-12-14T04:04:29;11.90;68.80
19622;DHT22;9958;33.196;-97.114;2023-12-14T04:06:59;11.90;69.10
19622;DHT22;9958;33.196;-97.114;2023-12-14T04:09:28;11.90;69.30
19622;DHT22;9958;33.196;-97.114;2023-12-14T04:11:56;11.80;69.30
19622;DHT22;9958;33.196;-97.114;2023-12-14T04:14:24;11.80;69.40
19622;DHT22;9958;33.196;-97.114;2023-12-14T04:16:53;11.80;69.50
19622;DHT22;9958;33.196;-97.114;2023-12-14T04:19:22;11.80;69.20
19622;DHT22;9958;33.196;-97.114;2023-12-14T04:21:50;11.70;69.10
19622;DHT22;9958;33.196;-97.114;2023-12-14T04:24:20;11.80;69.20
19622;DHT22;9958;33.196;-97.114;2023-12-14T04:26:49;11.70;69.00
19622;DHT22;9958;33.196;-97.114;2023-12-14T04:29:17;11.70;69.20
19622;DHT22;9958;33.196;-97.114;2023-12-14T04:31:45;11.70;69.10
19622;DHT22;9958;33.196;-97.114;2023-12-14T04:34:13;11.70;69.20
19622;DHT22;9958;33.196;-97.114;2023-12-14T04:36:42;11.70;69.40
19622;DHT22;9958;33.196;-97.114;2023-12-14T04:39:10;11.70;69.40
19622;DHT22;9958;33.196;-97.114;2023-12-14T04:41:40;11.70;69.30
19622;DHT22;9958;33.196;-97.114;2023-12-14T04:44:09;11.70;69.10
19622;DHT22;9958;33.196;-97.114;2023-12-14T04:46:38;11.70;69.10
19622;DHT22;9958;33.196;-97.114;2023-12-14T04:49:06;11.60;69.20
19622;DHT22;9958;33.196;-97.114;2023-12-14T04:51:34;11.60;69.20
19622;DHT22;9958;33.196;-97.114;2023-12-14T04:54:03;11.60;68.90
19622;DHT22;9958;33.196;-97.114;2023-12-14T04:56:32;11.60;69.10
19622;DHT22;9958;33.196;-97.114;2023-12-14T04:59:02;11.60;69.20
19622;DHT22;9958;33.196;-97.114;2023-12-14T05:01:30;11.60;69.40
19622;DHT22;9958;33.196;-97.114;2023-12-14T05:03:59;11.50;69.50
19622;DHT22;9958;33.196;-97.114;2023-12-14T05:06:27;11.50;69.60
19622;DHT22;9958;33.196;-97.114;2023-12-14T05:08:55;11.50;69.50
19622;DHT22;9958;33.196;-97.114;2023-12-14T05:11:25;11.50;69.50
19622;DHT22;9958;33.196;-97.114;2023-12-14T05:13:53;11.50;69.80
19622;DHT22;9958;33.196;-97.114;2023-12-14T05:16:23;11.50;69.80
19622;DHT22;9958;33.196;-97.114;2023-12-14T05:18:53;11.50;70.00
19622;DHT22;9958;33.196;-97.114;2023-12-14T05:21:21;11.40;70.00
19622;DHT22;9958;33.196;-97.114;2023-12-14T05:23:49;11.40;69.90
19622;DHT22;9958;33.196;-97.114;2023-12-14T05:26:18;11.40;70.00
19622;DHT22;9958;33.196;-97.114;2023-12-14T05:28:47;11.40;70.30
19622;DHT22;9958;33.196;-97.114;2023-12-14T05:31:15;11.30;70.60
19622;DHT22;9958;33.196;-97.114;2023-12-14T05:33:46;11.30;70.90
19622;DHT22;9958;33.196;-97.114;2023-12-14T05:36:14;11.30;71.20
19622;DHT22;9958;33.196;-97.114;2023-12-14T05:38:43;11.20;71.30
19622;DHT22;9958;33.196;-97.114;2023-12-14T05:41:11;11.20;71.60
19622;DHT22;9958;33.196;-97.114;2023-12-14T05:43:40;11.20;71.70
19622;DHT22;9958;33.196;-97.114;2023-12-14T05:46:08;11.10;71.70
19622;DHT22;9958;33.196;-97.114;2023-12-14T05:48:37;11.00;71.60
19622;DHT22;9958;33.196;-97.114;2023-12-14T05:51:07;11.00;71.80
19622;DHT22;9958;33.196;-97.114;2023-12-14T05:53:36;10.90;71.70
19622;DHT22;9958;33.196;-97.114;2023-12-14T05:56:07;10.90;71.70
19622;DHT22;9958;33.196;-97.114;2023-12-14T05:58:35;10.90;71.90
19622;DHT22;9958;33.196;-97.114;2023-12-14T06:01:04;10.90;72.30
19622;DHT22;9958;33.196;-97.114;2023-12-14T06:03:32;10.80;72.30
19622;DHT22;9958;33.196;-97.114;2023-12-14T06:06:00;10.70;72.40
19622;DHT22;9958;33.196;-97.114;2023-12-14T06:08:30;10.70;72.60
19622;DHT22;9958;33.196;-97.114;2023-12-14T06:10:58;10.70;72.90
19622;DHT22;9958;33.196;-97.114;2023-12-14T06:13:27;10.60;73.00
19622;DHT22;9958;33.196;-97.114;2023-12-14T06:15:55;10.60;73.10
19622;DHT22;9958;33.196;-97.114;2023-12-14T06:18:23;10.60;73.10
19622;DHT22;9958;33.196;-97.114;2023-12-14T06:20:52;10.50;73.10
19622;DHT22;9958;33.196;-97.114;2023-12-14T06:23:20;10.50;73.30
19622;DHT22;9958;33.196;-97.114;2023-12-14T06:25:50;10.40;73.40
19622;DHT22;9958;33.196;-97.114;2023-12-14T06:28:18;10.40;73.60
19622;DHT22;9958;33.196;-97.114;2023-12-14T06:30:47;10.40;73.60
19622;DHT22;9958;33.196;-97.114;2023-12-14T06:33:16;10.40;73.50
19622;DHT22;9958;33.196;-97.114;2023-12-14T06:35:44;10.30;73.30
19622;DHT22;9958;33.196;-97.114;2023-12-14T06:38:12;10.30;73.30
19622;DHT22;9958;33.196;-97.114;2023-12-14T06:40:40;10.30;73.50
19622;DHT22;9958;33.196;-97.114;2023-12-14T06:43:10;10.20;73.60
19622;DHT22;9958;33.196;-97.114;2023-12-14T06:45:39;10.20;73.80
19622;DHT22;9958;33.196;-97.114;2023-12-14T06:48:07;10.20;73.90
19622;DHT22;9958;33.196;-97.114;2023-12-14T06:50:35;10.10;73.90
19622;DHT22;9958;33.196;-97.114;2023-12-14T06:53:03;10.10;73.80
19622;DHT22;9958;33.196;-97.114;2023-12-14T06:55:32;10.10;74.30
19622;DHT22;9958;33.196;-97.114;2023-12-14T06:58:00;10.00;75.00
19622;DHT22;9958;33.196;-97.114;2023-12-14T07:00:30;10.00;74.30
19622;DHT22;9958;33.196;-97.114;2023-12-14T07:02:59;9.90;75.40
19622;DHT22;9958;33.196;-97.114;2023-12-14T07:05:27;9.80;75.90
19622;DHT22;9958;33.196;-97.114;2023-12-14T07:07:55;9.80;76.00
19622;DHT22;9958;33.196;-97.114;2023-12-14T07:10:24;9.80;76.30
19622;DHT22;9958;33.196;-97.114;2023-12-14T07:12:52;9.80;76.50
19622;DHT22;9958;33.196;-97.114;2023-12-14T07:15:21;9.70;76.80
19622;DHT22;9958;33.196;-97.114;2023-12-14T07:17:50;9.70;77.60
19622;DHT22;9958;33.196;-97.114;2023-12-14T07:20:19;9.60;77.70
19622;DHT22;9958;33.196;-97.114;2023-12-14T07:22:47;9.60;77.80
19622;DHT22;9958;33.196;-97.114;2023-12-14T07:25:16;9.50;77.90
19622;DHT22;9958;33.196;-97.114;2023-12-14T07:27:44;9.50;78.30
19622;DHT22;9958;33.196;-97.114;2023-12-14T07:30:13;9.50;78.60
19622;DHT22;9958;33.196;-97.114;2023-12-14T07:32:41;9.40;79.00
19622;DHT22;9958;33.196;-97.114;2023-12-14T07:35:11;9.30;79.20
19622;DHT22;9958;33.196;-97.114;2023-12-14T07:37:40;9.30;79.20
19622;DHT22;9958;33.196;-97.114;2023-12-14T07:40:09;9.30;79.50
19622;DHT22;9958;33.196;-97.114;2023-12-14T07:42:37;9.20;80.00
19622;DHT22;9958;33.196;-97.114;2023-12-14T07:45:07;9.20;80.40
19622;DHT22;9958;33.196;-97.114;2023-12-14T07:47:36;9.20;80.40
19622;DHT22;9958;33.196;-97.114;2023-12-14T07:50:05;9.10;80.30
19622;DHT22;9958;33.196;-97.114;2023-12-14T07:52:35;9.10;80.30
19622;DHT22;9958;33.196;-97.114;2023-12-14T07:55:04;9.10;80.80
19622;DHT22;9958;33.196;-97.114;2023-12-14T07:57:33;9.00;81.20
19622;DHT22;9958;33.196;-97.114;2023-12-14T08:00:01;8.90;80.90
19622;DHT22;9958;33.196;-97.114;2023-12-14T08:02:30;8.90;81.60
19622;DHT22;9958;33.196;-97.114;2023-12-14T08:04:58;8.90;82.00
19622;DHT22;9958;33.196;-97.114;2023-12-14T08:07:26;8.80;82.30
19622;DHT22;9958;33.196;-97.114;2023-12-14T08:09:57;8.70;82.20
19622;DHT22;9958;33.196;-97.114;2023-12-14T08:12:25;8.70;82.20
19622;DHT22;9958;33.196;-97.114;2023-12-14T08:14:54;8.70;82.30
19622;DHT22;9958;33.196;-97.114;2023-12-14T08:17:22;8.60;82.40
19622;DHT22;9958;33.196;-97.114;2023-12-14T08:19:50;8.50;82.80
19622;DHT22;9958;33.196;-97.114;2023-12-14T08:22:19;8.50;83.50
19622;DHT22;9958;33.196;-97.114;2023-12-14T08:24:48;8.40;84.80
19622;DHT22;9958;33.196;-97.114;2023-12-14T08:27:18;8.40;84.40
19622;DHT22;9958;33.196;-97.114;2023-12-14T08:29:46;8.30;84.70
19622;DHT22;9958;33.196;-97.114;2023-12-14T08:32:15;8.30;85.20
19622;DHT22;9958;33.196;-97.114;2023-12-14T08:34:43;8.30;85.20
19622;DHT22;9958;33.196;-97.114;2023-12-14T08:37:11;8.30;85.20
19622;DHT22;9958;33.196;-97.114;2023-12-14T08:39:40;8.20;85.20
19622;DHT22;9958;33.196;-97.114;2023-12-14T08:42:08;8.20;85.60
19622;DHT22;9958;33.196;-97.114;2023-12-14T08:44:41;8.20;85.70
19622;DHT22;9958;33.196;-97.114;2023-12-14T08:47:09;8.20;86.40
19622;DHT22;9958;33.196;-97.114;2023-12-14T08:49:37;8.10;86.20
19622;DHT22;9958;33.196;-97.114;2023-12-14T08:52:06;8.10;86.00
19622;DHT22;9958;33.196;-97.114;2023-12-14T08:54:35;8.10;85.90
19622;DHT22;9958;33.196;-97.114;2023-12-14T08:57:04;8.10;86.50
19622;DHT22;9958;33.196;-97.114;2023-12-14T08:59:32;8.10;86.70
19622;DHT22;9958;33.196;-97.114;2023-12-14T09:02:02;8.10;87.00
19622;DHT22;9958;33.196;-97.114;2023-12-14T09:04:31;8.10;86.90
19622;DHT22;9958;33.196;-97.114;2023-12-14T09:07:02;8.00;86.70
19622;DHT22;9958;33.196;-97.114;2023-12-14T09:09:31;8.00;86.80
19622;DHT22;9958;33.196;-97.114;2023-12-14T09:12:00;8.00;87.00
19622;DHT22;9958;33.196;-97.114;2023-12-14T09:14:29;8.10;86.80
19622;DHT22;9958;33.196;-97.114;2023-12-14T09:16:57;8.10;86.40
19622;DHT22;9958;33.196;-97.114;2023-12-14T09:19:29;8.10;86.90
19622;DHT22;9958;33.196;-97.114;2023-12-14T09:21:58;8.10;87.10
19622;DHT22;9958;33.196;-97.114;2023-12-14T09:24:26;8.10;86.80
19622;DHT22;9958;33.196;-97.114;2023-12-14T09:26:55;8.10;86.80
19622;DHT22;9958;33.196;-97.114;2023-12-14T09:29:23;8.10;86.90
19622;DHT22;9958;33.196;-97.114;2023-12-14T09:31:51;8.10;87.20
19622;DHT22;9958;33.196;-97.114;2023-12-14T09:34:20;8.10;87.40
19622;DHT22;9958;33.196;-97.114;2023-12-14T09:36:50;8.10;87.30
19622;DHT22;9958;33.196;-97.114;2023-12-14T09:39:19;8.10;86.90
19622;DHT22;9958;33.196;-97.114;2023-12-14T09:41:48;8.00;86.80
19622;DHT22;9958;33.196;-97.114;2023-12-14T09:44:18;8.10;87.60
19622;DHT22;9958;33.196;-97.114;2023-12-14T09:46:46;8.00;87.50
19622;DHT22;9958;33.196;-97.114;2023-12-14T09:49:16;8.00;87.70
19622;DHT22;9958;33.196;-97.114;2023-12-14T09:51:45;8.00;87.80
19622;DHT22;9958;33.196;-97.114;2023-12-14T09:54:15;8.00;88.30
19622;DHT22;9958;33.196;-97.114;2023-12-14T09:56:47;7.90;88.50
19622;DHT22;9958;33.196;-97.114;2023-12-14T09:59:15;7.90;88.30
19622;DHT22;9958;33.196;-97.114;2023-12-14T10:01:43;7.90;88.00
19622;DHT22;9958;33.196;-97.114;2023-12-14T10:04:14;7.80;88.10
19622;DHT22;9958;33.196;-97.114;2023-12-14T10:06:44;7.80;88.30
19622;DHT22;9958;33.196;-97.114;2023-12-14T10:09:15;7.80;88.40
19622;DHT22;9958;33.196;-97.114;2023-12-14T10:11:45;7.80;88.90
19622;DHT22;9958;33.196;-97.114;2023-12-14T10:14:20;7.80;88.40
19622;DHT22;9958;33.196;-97.114;2023-12-14T10:16:49;7.80;88.60
19622;DHT22;9958;33.196;-97.114;2023-12-14T10:19:18;7.70;88.50
19622;DHT22;9958;33.196;-97.114;2023-12-14T10:21:48;7.70;88.50
19622;DHT22;9958;33.196;-97.114;2023-12-14T10:24:18;7.70;88.40
19622;DHT22;9958;33.196;-97.114;2023-12-14T10:26:47;7.70;88.30
19622;DHT22;9958;33.196;-97.114;2023-12-14T10:29:15;7.80;88.40
19622;DHT22;9958;33.196;-97.114;2023-12-14T10:31:44;7.80;88.70
19622;DHT22;9958;33.196;-97.114;2023-12-14T10:34:12;7.80;88.50
19622;DHT22;9958;33.196;-97.114;2023-12-14T10:36:41;7.80;88.40
19622;DHT22;9958;33.196;-97.114;2023-12-14T10:39:14;7.80;88.10
19622;DHT22;9958;33.196;-97.114;2023-12-14T10:41:47;7.80;88.30
19622;DHT22;9958;33.196;-97.114;2023-12-14T10:44:16;7.80;88.50
19622;DHT22;9958;33.196;-97.114;2023-12-14T10:46:47;7.90;88.50
19622;DHT22;9958;33.196;-97.114;2023-12-14T10:49:16;7.90;88.50
19622;DHT22;9958;33.196;-97.114;2023-12-14T10:51:45;7.80;88.50
19622;DHT22;9958;33.196;-97.114;2023-12-14T10:54:15;7.80;88.40
19622;DHT22;9958;33.196;-97.114;2023-12-14T10:56:45;7.90;88.00
19622;DHT22;9958;33.196;-97.114;2023-12-14T10:59:15;7.90;88.10
19622;DHT22;9958;33.196;-97.114;2023-12-14T11:01:44;7.90;88.00
19622;DHT22;9958;33.196;-97.114;2023-12-14T11:04:12;7.90;88.20
19622;DHT22;9958;33.196;-97.114;2023-12-14T11:06:43;7.90;88.00
19622;DHT22;9958;33.196;-97.114;2023-12-14T11:09:13;8.00;88.20
19622;DHT22;9958;33.196;-97.114;2023-12-14T11:11:55;8.00;88.60
19622;DHT22;9958;33.196;-97.114;2023-12-14T11:14:26;8.00;88.30
19622;DHT22;9958;33.196;-97.114;2023-12-14T11:16:56;8.00;88.10
19622;DHT22;9958;33.196;-97.114;2023-12-14T11:19:26;8.00;88.30
19622;DHT22;9958;33.196;-97.114;2023-12-14T11:22:23;7.90;88.30
19622;DHT22;9958;33.196;-97.114;2023-12-14T11:24:54;7.90;88.10
19622;DHT22;9958;33.196;-97.114;2023-12-14T11:27:31;7.90;87.90
19622;DHT22;9958;33.196;-97.114;2023-12-14T11:29:59;7.90;87.90
19622;DHT22;9958;33.196;-97.114;2023-12-14T11:32:28;7.90;87.90
19622;DHT22;9958;33.196;-97.114;2023-12-14T11:34:56;7.90;88.00
19622;DHT22;9958;33.196;-97.114;2023-12-14T11:37:25;7.90;87.80
19622;DHT22;9958;33.196;-97.114;2023-12-14T11:39:54;7.90;88.00
19622;DHT22;9958;33.196;-97.114;2023-12-14T11:42:22;7.90;88.00
19622;DHT22;9958;33.196;-97.114;2023-12-14T11:44:53;7.90;87.90
19622;DHT22;9958;33.196;-97.114;2023-12-14T11:47:21;7.90;87.90
19622;DHT22;9958;33.196;-97.114;2023-12-14T11:49:49;7.90;88.10
19622;DHT22;9958;33.196;-97.114;2023-12-14T11:52:18;7.90;88.40
19622;DHT22;9958;33.196;-97.114;2023-12-14T11:54:47;8.00;88.20
19622;DHT22;9958;33.196;-97.114;2023-12-14T11:57:16;8.00;88.40
19622;DHT22;9958;33.196;-97.114;2023-12-14T11:59:45;8.00;88.50
19622;DHT22;9958;33.196;-97.114;2023-12-14T12:02:23;8.00;88.30
19622;DHT22;9958;33.196;-97.114;2023-12-14T12:04:52;8.00;88.60
19622;DHT22;9958;33.196;-97.114;2023-12-14T12:07:21;8.00;88.90
19622;DHT22;9958;33.196;-97.114;2023-12-14T12:09:49;8.00;89.30
19622;DHT22;9958;33.196;-97.114;2023-12-14T12:12:17;8.00;89.20
19622;DHT22;9958;33.196;-97.114;2023-12-14T12:14:46;8.00;89.20
19622;DHT22;9958;33.196;-97.114;2023-12-14T12:17:17;8.00;89.30
19622;DHT22;9958;33.196;-97.114;2023-12-14T12:19:46;8.00;89.20
19622;DHT22;9958;33.196;-97.114;2023-12-14T12:22:14;8.00;88.90
19622;DHT22;9958;33.196;-97.114;2023-12-14T12:24:42;8.00;89.60
19622;DHT22;9958;33.196;-97.114;2023-12-14T12:27:11;8.00;89.20
19622;DHT22;9958;33.196;-97.114;2023-12-14T12:29:39;8.00;89.50
19622;DHT22;9958;33.196;-97.114;2023-12-14T12:32:07;8.00;89.90
19622;DHT22;9958;33.196;-97.114;2023-12-14T12:34:37;8.00;90.00
19622;DHT22;9958;33.196;-97.114;2023-12-14T12:37:05;8.00;90.00
19622;DHT22;9958;33.196;-97.114;2023-12-14T12:39:34;8.00;90.10
19622;DHT22;9958;33.196;-97.114;2023-12-14T12:42:02;7.90;90.00
19622;DHT22;9958;33.196;-97.114;2023-12-14T12:44:30;7.90;90.20
19622;DHT22;9958;33.196;-97.114;2023-12-14T12:46:59;7.90;90.20
19622;DHT22;9958;33.196;-97.114;2023-12-14T12:49:27;7.90;90.00
19622;DHT22;9958;33.196;-97.114;2023-12-14T12:51:57;7.90;90.10
19622;DHT22;9958;33.196;-97.114;2023-12-14T12:54:25;7.90;90.30
19622;DHT22;9958;33.196;-97.114;2023-12-14T12:56:53;7.90;90.50
19622;DHT22;9958;33.196;-97.114;2023-12-14T12:59:22;7.90;90.20
19622;DHT22;9958;33.196;-97.114;2023-12-14T13:01:50;7.90;90.30
19622;DHT22;9958;33.196;-97.114;2023-12-14T13:04:21;7.90;90.50
19622;DHT22;9958;33.196;-97.114;2023-12-14T13:06:49;7.90;90.50
19622;DHT22;9958;33.196;-97.114;2023-12-14T13:09:19;7.80;90.70
19622;DHT22;9958;33.196;-97.114;2023-12-14T13:11:49;7.80;90.60
19622;DHT22;9958;33.196;-97.114;2023-12-14T13:14:17;7.80;90.50
19622;DHT22;9958;33.196;-97.114;2023-12-14T13:16:45;7.90;90.60
19622;DHT22;9958;33.196;-97.114;2023-12-14T13:19:14;7.80;90.60
19622;DHT22;9958;33.196;-97.114;2023-12-14T13:21:42;7.90;91.30
19622;DHT22;9958;33.196;-97.114;2023-12-14T13:24:11;7.80;91.20
19622;DHT22;9958;33.196;-97.114;2023-12-14T13:26:40;7.80;91.30
19622;DHT22;9958;33.196;-97.114;2023-12-14T13:29:09;7.80;91.30
19622;DHT22;9958;33.196;-97.114;2023-12-14T13:31:37;7.80;91.40
19622;DHT22;9958;33.196;-97.114;2023-12-14T13:34:06;7.70;91.80
19622;DHT22;9958;33.196;-97.114;2023-12-14T13:36:34;7.70;91.80
19622;DHT22;9958;33.196;-97.114;2023-12-14T13:39:03;7.70;91.70
19622;DHT22;9958;33.196;-97.114;2023-12-14T13:41:32;7.70;92.10
19622;DHT22;9958;33.196;-97.114;2023-12-14T13:44:03;7.60;92.50
19622;DHT22;9958;33.196;-97.114;2023-12-14T13:46:31;7.60;92.30
19622;DHT22;9958;33.196;-97.114;2023-12-14T13:48:59;7.60;92.10
19622;DHT22;9958;33.196;-97.114;2023-12-14T13:51:28;7.60;92.00
19622;DHT22;9958;33.196;-97.114;2023-12-14T13:53:56;7.50;92.00
19622;DHT22;9958;33.196;-97.114;2023-12-14T13:56:25;7.50;91.90
19622;DHT22;9958;33.196;-97.114;2023-12-14T13:58:54;7.50;91.80
19622;DHT22;9958;33.196;-97.114;2023-12-14T14:01:24;7.50;91.60
19622;DHT22;9958;33.196;-97.114;2023-12-14T14:03:52;7.50;91.60
19622;DHT22;9958;33.196;-97.114;2023-12-14T14:06:20;7.50;91.90
19622;DHT22;9958;33.196;-97.114;2023-12-14T14:08:49;7.50;91.70
19622;DHT22;9958;33.196;-97.114;2023-12-14T14:11:18;7.40;91.40
19622;DHT22;9958;33.196;-97.114;2023-12-14T14:13:46;7.50;91.50
19622;DHT22;9958;33.196;-97.114;2023-12-14T14:16:15;7.50;91.60
19622;DHT22;9958;33.196;-97.114;2023-12-14T14:18:45;7.50;91.60
19622;DHT22;9958;33.196;-97.114;2023-12-14T14:21:13;7.50;91.50
19622;DHT22;9958;33.196;-97.114;2023-12-14T14:23:41;7.50;91.50
19622;DHT22;9958;33.196;-97.114;2023-12-14T14:26:10;7.60;91.60
19622;DHT22;9958;33.196;-97.114;2023-12-14T14:28:38;7.60;91.60
19622;DHT22;9958;33.196;-97.114;2023-12-14T14:31:07;7.60;91.70
19622;DHT22;9958;33.196;-97.114;2023-12-14T14:33:35;7.60;91.70
19622;DHT22;9958;33.196;-97.114;2023-12-14T14:36:06;7.70;91.90
19622;DHT22;9958;33.196;-97.114;2023-12-14T14:38:34;7.80;92.00
19622;DHT22;9958;33.196;-97.114;2023-12-14T14:41:03;7.80;91.80
19622;DHT22;9958;33.196;-97.114;2023-12-14T14:43:31;7.80;91.60
19622;DHT22;9958;33.196;-97.114;2023-12-14T14:46:00;7.90;91.60
19622;DHT22;9958;33.196;-97.114;2023-12-14T14:48:28;8.00;91.60
19622;DHT22;9958;33.196;-97.114;2023-12-14T14:50:56;8.00;91.40
19622;DHT22;9958;33.196;-97.114;2023-12-14T14:53:26;8.10;91.50
19622;DHT22;9958;33.196;-97.114;2023-12-14T14:55:56;8.10;91.50
19622;DHT22;9958;33.196;-97.114;2023-12-14T14:58:24;8.20;91.40
19622;DHT22;9958;33.196;-97.114;2023-12-14T15:00:52;8.20;91.30
19622;DHT22;9958;33.196;-97.114;2023-12-14T15:03:21;8.30;91.20
19622;DHT22;9958;33.196;-97.114;2023-12-14T15:05:49;8.30;91.20
19622;DHT22;9958;33.196;-97.114;2023-12-14T15:08:17;8.40;91.30
19622;DHT22;9958;33.196;-97.114;2023-12-14T15:10:47;8.30;91.10
19622;DHT22;9958;33.196;-97.114;2023-12-14T15:13:15;8.40;91.20
19622;DHT22;9958;33.196;-97.114;2023-12-14T15:15:44;8.40;91.40
19622;DHT22;9958;33.196;-97.114;2023-12-14T15:18:13;8.50;91.20
19622;DHT22;9958;33.196;-97.114;2023-12-14T15:20:42;8.60;91.20
19622;DHT22;9958;33.196;-97.114;2023-12-14T15:23:10;8.60;91.10
19622;DHT22;9958;33.196;-97.114;2023-12-14T15:25:38;8.70;91.20
19622;DHT22;9958;33.196;-97.114;2023-12-14T15:28:09;8.80;91.10
19622;DHT22;9958;33.196;-97.114;2023-12-14T15:30:37;8.80;91.10
19622;DHT22;9958;33.196;-97.114;2023-12-14T15:33:05;8.90;91.00
19622;DHT22;9958;33.196;-97.114;2023-12-14T15:35:33;8.90;90.80